sensor_id;sensor_type;location;lat;lon;timestamp;P1;durP1;ratioP1;P2;durP2;ratioP2
23668;SDS011;12011;47.422;15.018;2024-03-17T00:00:58;0.34;;;0.33;;
23668;SDS011;12011;47.422;15.018;2024-03-17T00:03:34;0.29;;;0.29;;
23668;SDS011;12011;47.422;15.018;2024-03-17T00:06:05;0.23;;;0.23;;
23668;SDS011;12011;47.422;15.018;2024-03-17T00:08:34;0.25;;;0.24;;
23668;SDS011;12011;47.422;15.018;2024-03-17T00:11:08;0.16;;;0.16;;
23668;SDS011;12011;47.422;15.018;2024-03-17T00:13:40;0.22;;;0.22;;
23668;SDS011;12011;47.422;15.018;2024-03-17T00:16:14;0.48;;;0.46;;
23668;SDS011;12011;47.422;15.018;2024-03-17T00:18:44;0.63;;;0.62;;
23668;SDS011;12011;47.422;15.018;2024-03-17T00:21:22;0.73;;;0.71;;
23668;SDS011;12011;47.422;15.018;2024-03-17T00:23:51;0.62;;;0.61;;
23668;SDS011;12011;47.422;15.018;2024-03-17T00:26:23;0.62;;;0.61;;
23668;SDS011;12011;47.422;15.018;2024-03-17T00:28:53;0.49;;;0.48;;
23668;SDS011;12011;47.422;15.018;2024-03-17T00:31:29;0.77;;;0.75;;
23668;SDS011;12011;47.422;15.018;2024-03-17T00:33:57;0.79;;;0.77;;
23668;SDS011;12011;47.422;15.018;2024-03-17T00:36:31;0.80;;;0.79;;
23668;SDS011;12011;47.422;15.018;2024-03-17T00:39:03;0.55;;;0.54;;
23668;SDS011;12011;47.422;15.018;2024-03-17T00:41:32;0.48;;;0.48;;
23668;SDS011;12011;47.422;15.018;2024-03-17T00:44:00;0.31;;;0.31;;
23668;SDS011;12011;47.422;15.018;2024-03-17T00:46:36;0.20;;;0.20;;
23668;SDS011;12011;47.422;15.018;2024-03-17T00:49:10;0.21;;;0.21;;
23668;SDS011;12011;47.422;15.018;2024-03-17T00:51:42;0.34;;;0.33;;
23668;SDS011;12011;47.422;15.018;2024-03-17T00:54:14;0.39;;;0.39;;
23668;SDS011;12011;47.422;15.018;2024-03-17T00:56:49;0.61;;;0.60;;
23668;SDS011;12011;47.422;15.018;2024-03-17T00:59:22;0.94;;;0.93;;
23668;SDS011;12011;47.422;15.018;2024-03-17T01:01:55;0.78;;;0.77;;
23668;SDS011;12011;47.422;15.018;2024-03-17T01:04:32;0.94;;;0.94;;
23668;SDS011;12011;47.422;15.018;2024-03-17T01:07:03;0.93;;;0.93;;
23668;SDS011;12011;47.422;15.018;2024-03-17T01:09:33;0.50;;;0.50;;
23668;SDS011;12011;47.422;15.018;2024-03-17T01:12:02;0.47;;;0.47;;
23668;SDS011;12011;47.422;15.018;2024-03-17T01:14:33;0.36;;;0.35;;
23668;SDS011;12011;47.422;15.018;2024-03-17T01:17:07;0.21;;;0.20;;
23668;SDS011;12011;47.422;15.018;2024-03-17T01:19:35;0.33;;;0.33;;
23668;SDS011;12011;47.422;15.018;2024-03-17T01:22:10;0.29;;;0.29;;
23668;SDS011;12011;47.422;15.018;2024-03-17T01:24:38;0.32;;;0.32;;
23668;SDS011;12011;47.422;15.018;2024-03-17T01:27:13;0.23;;;0.23;;
23668;SDS011;12011;47.422;15.018;2024-03-17T01:29:46;0.18;;;0.18;;
23668;SDS011;12011;47.422;15.018;2024-03-17T01:32:20;0.15;;;0.15;;
23668;SDS011;12011;47.422;15.018;2024-03-17T01:34:47;0.21;;;0.21;;
23668;SDS011;12011;47.422;15.018;2024-03-17T01:37:20;0.27;;;0.27;;
23668;SDS011;12011;47.422;15.018;2024-03-17T01:39:49;0.26;;;0.26;;
23668;SDS011;12011;47.422;15.018;2024-03-17T01:42:23;0.18;;;0.18;;
23668;SDS011;12011;47.422;15.018;2024-03-17T01:44:53;0.17;;;0.17;;
23668;SDS011;12011;47.422;15.018;2024-03-17T01:47:29;0.29;;;0.28;;
23668;SDS011;12011;47.422;15.018;2024-03-17T01:49:59;0.26;;;0.26;;
23668;SDS011;12011;47.422;15.018;2024-03-17T01:52:36;0.25;;;0.25;;
23668;SDS011;12011;47.422;15.018;2024-03-17T01:55:06;0.19;;;0.19;;
23668;SDS011;12011;47.422;15.018;2024-03-17T01:57:43;0.17;;;0.17;;
23668;SDS011;12011;47.422;15.018;2024-03-17T02:00:10;0.12;;;0.11;;
23668;SDS011;12011;47.422;15.018;2024-03-17T02:02:48;0.20;;;0.20;;
23668;SDS011;12011;47.422;15.018;2024-03-17T02:05:18;0.24;;;0.24;;
23668;SDS011;12011;47.422;15.018;2024-03-17T02:07:52;0.34;;;0.34;;
23668;SDS011;12011;47.422;15.018;2024-03-17T02:10:22;0.36;;;0.36;;
23668;SDS011;12011;47.422;15.018;2024-03-17T02:13:16;0.29;;;0.29;;
23668;SDS011;12011;47.422;15.018;2024-03-17T02:15:51;0.30;;;0.30;;
23668;SDS011;12011;47.422;15.018;2024-03-17T02:18:22;0.22;;;0.22;;
23668;SDS011;12011;47.422;15.018;2024-03-17T02:20:59;0.33;;;0.33;;
23668;SDS011;12011;47.422;15.018;2024-03-17T02:23:33;0.91;;;0.91;;
23668;SDS011;12011;47.422;15.018;2024-03-17T02:26:07;0.99;;;0.99;;
23668;SDS011;12011;47.422;15.018;2024-03-17T02:28:45;0.67;;;0.66;;
23668;SDS011;12011;47.422;15.018;2024-03-17T02:31:34;0.56;;;0.56;;
23668;SDS011;12011;47.422;15.018;2024-03-17T02:34:09;0.65;;;0.65;;
23668;SDS011;12011;47.422;15.018;2024-03-17T02:36:41;0.44;;;0.43;;
23668;SDS011;12011;47.422;15.018;2024-03-17T02:39:14;0.51;;;0.51;;
23668;SDS011;12011;47.422;15.018;2024-03-17T02:42:16;0.50;;;0.50;;
23668;SDS011;12011;47.422;15.018;2024-03-17T02:44:49;0.29;;;0.28;;
23668;SDS011;12011;47.422;15.018;2024-03-17T02:47:21;0.39;;;0.39;;
23668;SDS011;12011;47.422;15.018;2024-03-17T02:49:56;0.60;;;0.60;;
23668;SDS011;12011;47.422;15.018;2024-03-17T02:52:28;0.40;;;0.40;;
23668;SDS011;12011;47.422;15.018;2024-03-17T02:55:04;0.45;;;0.45;;
23668;SDS011;12011;47.422;15.018;2024-03-17T02:57:44;0.61;;;0.61;;
23668;SDS011;12011;47.422;15.018;2024-03-17T03:00:17;0.68;;;0.67;;
23668;SDS011;12011;47.422;15.018;2024-03-17T03:02:52;0.61;;;0.61;;
23668;SDS011;12011;47.422;15.018;2024-03-17T03:05:29;1.04;;;1.04;;
23668;SDS011;12011;47.422;15.018;2024-03-17T03:08:00;1.23;;;1.23;;
23668;SDS011;12011;47.422;15.018;2024-03-17T03:10:39;1.48;;;1.48;;
23668;SDS011;12011;47.422;15.018;2024-03-17T03:13:15;1.21;;;1.21;;
23668;SDS011;12011;47.422;15.018;2024-03-17T03:15:49;0.94;;;0.94;;
23668;SDS011;12011;47.422;15.018;2024-03-17T03:18:27;1.42;;;1.41;;
23668;SDS011;12011;47.422;15.018;2024-03-17T03:21:01;1.59;;;1.58;;
23668;SDS011;12011;47.422;15.018;2024-03-17T03:23:31;0.88;;;0.87;;
23668;SDS011;12011;47.422;15.018;2024-03-17T03:26:06;0.76;;;0.75;;
23668;SDS011;12011;47.422;15.018;2024-03-17T03:28:38;0.59;;;0.58;;
23668;SDS011;12011;47.422;15.018;2024-03-17T03:31:13;0.61;;;0.60;;
23668;SDS011;12011;47.422;15.018;2024-03-17T03:33:43;0.71;;;0.71;;
23668;SDS011;12011;47.422;15.018;2024-03-17T03:36:15;1.42;;;1.41;;
23668;SDS011;12011;47.422;15.018;2024-03-17T03:38:49;1.77;;;1.73;;
23668;SDS011;12011;47.422;15.018;2024-03-17T03:41:24;1.46;;;1.41;;
23668;SDS011;12011;47.422;15.018;2024-03-17T03:43:54;1.28;;;1.23;;
23668;SDS011;12011;47.422;15.018;2024-03-17T03:46:29;0.81;;;0.79;;
23668;SDS011;12011;47.422;15.018;2024-03-17T03:49:01;0.94;;;0.92;;
23668;SDS011;12011;47.422;15.018;2024-03-17T03:51:31;0.96;;;0.94;;
23668;SDS011;12011;47.422;15.018;2024-03-17T03:56:46;1.19;;;1.17;;
23668;SDS011;12011;47.422;15.018;2024-03-17T03:59:22;1.25;;;1.23;;
23668;SDS011;12011;47.422;15.018;2024-03-17T04:01:57;1.05;;;1.04;;
23668;SDS011;12011;47.422;15.018;2024-03-17T04:04:28;0.72;;;0.71;;
23668;SDS011;12011;47.422;15.018;2024-03-17T04:06:58;0.72;;;0.71;;
23668;SDS011;12011;47.422;15.018;2024-03-17T04:09:34;0.84;;;0.84;;
23668;SDS011;12011;47.422;15.018;2024-03-17T04:12:23;0.71;;;0.71;;
23668;SDS011;12011;47.422;15.018;2024-03-17T04:15:01;0.66;;;0.66;;
23668;SDS011;12011;47.422;15.018;2024-03-17T04:17:33;1.38;;;1.38;;
23668;SDS011;12011;47.422;15.018;2024-03-17T04:20:03;0.97;;;0.97;;
23668;SDS011;12011;47.422;15.018;2024-03-17T04:22:38;1.20;;;1.20;;
23668;SDS011;12011;47.422;15.018;2024-03-17T04:25:17;1.03;;;1.03;;
23668;SDS011;12011;47.422;15.018;2024-03-17T04:27:52;2.02;;;2.02;;
23668;SDS011;12011;47.422;15.018;2024-03-17T04:30:40;1.78;;;1.77;;
23668;SDS011;12011;47.422;15.018;2024-03-17T04:33:17;2.07;;;2.07;;
23668;SDS011;12011;47.422;15.018;2024-03-17T04:35:53;1.68;;;1.68;;
23668;SDS011;12011;47.422;15.018;2024-03-17T04:38:24;1.56;;;1.56;;
23668;SDS011;12011;47.422;15.018;2024-03-17T04:40:56;1.28;;;1.28;;
23668;SDS011;12011;47.422;15.018;2024-03-17T04:43:41;1.15;;;1.15;;
23668;SDS011;12011;47.422;15.018;2024-03-17T04:46:11;0.83;;;0.83;;
23668;SDS011;12011;47.422;15.018;2024-03-17T04:48:41;0.70;;;0.70;;
23668;SDS011;12011;47.422;15.018;2024-03-17T04:51:14;0.64;;;0.64;;
23668;SDS011;12011;47.422;15.018;2024-03-17T04:53:44;0.96;;;0.96;;
23668;SDS011;12011;47.422;15.018;2024-03-17T04:56:23;0.79;;;0.79;;
23668;SDS011;12011;47.422;15.018;2024-03-17T04:59:00;0.63;;;0.63;;
23668;SDS011;12011;47.422;15.018;2024-03-17T05:01:35;0.80;;;0.80;;
23668;SDS011;12011;47.422;15.018;2024-03-17T05:04:10;0.97;;;0.97;;
23668;SDS011;12011;47.422;15.018;2024-03-17T05:06:42;0.73;;;0.73;;
23668;SDS011;12011;47.422;15.018;2024-03-17T05:09:17;0.88;;;0.88;;
23668;SDS011;12011;47.422;15.018;2024-03-17T05:11:50;0.68;;;0.68;;
23668;SDS011;12011;47.422;15.018;2024-03-17T05:14:24;0.80;;;0.80;;
23668;SDS011;12011;47.422;15.018;2024-03-17T05:16:55;0.95;;;0.95;;
23668;SDS011;12011;47.422;15.018;2024-03-17T05:19:25;0.89;;;0.89;;
23668;SDS011;12011;47.422;15.018;2024-03-17T05:21:57;1.00;;;1.00;;
23668;SDS011;12011;47.422;15.018;2024-03-17T05:24:29;1.02;;;1.02;;
23668;SDS011;12011;47.422;15.018;2024-03-17T05:27:00;0.92;;;0.92;;
23668;SDS011;12011;47.422;15.018;2024-03-17T05:29:37;1.78;;;1.78;;
23668;SDS011;12011;47.422;15.018;2024-03-17T05:32:07;1.60;;;1.60;;
23668;SDS011;12011;47.422;15.018;2024-03-17T05:34:37;1.13;;;1.13;;
23668;SDS011;12011;47.422;15.018;2024-03-17T05:37:09;1.35;;;1.35;;
23668;SDS011;12011;47.422;15.018;2024-03-17T05:39:39;1.26;;;1.26;;
23668;SDS011;12011;47.422;15.018;2024-03-17T05:42:08;1.06;;;1.06;;
23668;SDS011;12011;47.422;15.018;2024-03-17T05:44:40;2.29;;;2.29;;
23668;SDS011;12011;47.422;15.018;2024-03-17T05:47:18;2.29;;;2.27;;
23668;SDS011;12011;47.422;15.018;2024-03-17T05:49:48;1.54;;;1.51;;
23668;SDS011;12011;47.422;15.018;2024-03-17T05:52:17;1.21;;;1.19;;
23668;SDS011;12011;47.422;15.018;2024-03-17T05:54:47;1.18;;;1.17;;
23668;SDS011;12011;47.422;15.018;2024-03-17T05:57:17;1.01;;;1.01;;
23668;SDS011;12011;47.422;15.018;2024-03-17T05:59:49;1.00;;;1.00;;
23668;SDS011;12011;47.422;15.018;2024-03-17T06:02:19;2.53;;;2.53;;
23668;SDS011;12011;47.422;15.018;2024-03-17T06:04:48;1.61;;;1.61;;
23668;SDS011;12011;47.422;15.018;2024-03-17T06:07:18;1.01;;;1.01;;
23668;SDS011;12011;47.422;15.018;2024-03-17T06:09:47;0.94;;;0.94;;
23668;SDS011;12011;47.422;15.018;2024-03-17T06:12:17;0.93;;;0.93;;
23668;SDS011;12011;47.422;15.018;2024-03-17T06:14:49;0.86;;;0.86;;
23668;SDS011;12011;47.422;15.018;2024-03-17T06:17:18;0.90;;;0.90;;
23668;SDS011;12011;47.422;15.018;2024-03-17T06:19:48;0.90;;;0.90;;
23668;SDS011;12011;47.422;15.018;2024-03-17T06:22:17;1.00;;;1.00;;
23668;SDS011;12011;47.422;15.018;2024-03-17T06:24:48;0.87;;;0.87;;
23668;SDS011;12011;47.422;15.018;2024-03-17T06:27:17;1.05;;;1.05;;
23668;SDS011;12011;47.422;15.018;2024-03-17T06:29:50;0.98;;;0.98;;
23668;SDS011;12011;47.422;15.018;2024-03-17T06:32:20;0.80;;;0.80;;
23668;SDS011;12011;47.422;15.018;2024-03-17T06:34:50;0.78;;;0.78;;
23668;SDS011;12011;47.422;15.018;2024-03-17T06:37:19;0.91;;;0.91;;
23668;SDS011;12011;47.422;15.018;2024-03-17T06:39:50;0.90;;;0.90;;
23668;SDS011;12011;47.422;15.018;2024-03-17T06:42:20;1.09;;;1.09;;
23668;SDS011;12011;47.422;15.018;2024-03-17T06:44:53;1.57;;;1.57;;
23668;SDS011;12011;47.422;15.018;2024-03-17T06:47:23;2.25;;;2.25;;
23668;SDS011;12011;47.422;15.018;2024-03-17T06:49:53;1.96;;;1.96;;
23668;SDS011;12011;47.422;15.018;2024-03-17T06:52:23;2.98;;;2.97;;
23668;SDS011;12011;47.422;15.018;2024-03-17T06:54:53;8.74;;;8.64;;
23668;SDS011;12011;47.422;15.018;2024-03-17T06:57:26;10.46;;;10.28;;
23668;SDS011;12011;47.422;15.018;2024-03-17T06:59:59;10.70;;;10.46;;
23668;SDS011;12011;47.422;15.018;2024-03-17T07:02:40;0.86;;;0.84;;
23668;SDS011;12011;47.422;15.018;2024-03-17T07:05:13;0.91;;;0.89;;
23668;SDS011;12011;47.422;15.018;2024-03-17T07:07:44;0.87;;;0.85;;
23668;SDS011;12011;47.422;15.018;2024-03-17T07:10:15;4.50;;;4.43;;
23668;SDS011;12011;47.422;15.018;2024-03-17T07:12:44;2.33;;;2.31;;
23668;SDS011;12011;47.422;15.018;2024-03-17T07:15:17;1.39;;;1.38;;
23668;SDS011;12011;47.422;15.018;2024-03-17T07:17:47;1.26;;;1.25;;
23668;SDS011;12011;47.422;15.018;2024-03-17T07:20:18;0.52;;;0.52;;
23668;SDS011;12011;47.422;15.018;2024-03-17T07:22:48;0.35;;;0.35;;
23668;SDS011;12011;47.422;15.018;2024-03-17T07:25:18;0.46;;;0.46;;
23668;SDS011;12011;47.422;15.018;2024-03-17T07:27:48;0.69;;;0.69;;
23668;SDS011;12011;47.422;15.018;2024-03-17T07:30:20;0.56;;;0.56;;
23668;SDS011;12011;47.422;15.018;2024-03-17T07:32:49;0.74;;;0.74;;
23668;SDS011;12011;47.422;15.018;2024-03-17T07:35:20;0.54;;;0.54;;
23668;SDS011;12011;47.422;15.018;2024-03-17T07:37:49;0.64;;;0.64;;
23668;SDS011;12011;47.422;15.018;2024-03-17T07:40:19;0.58;;;0.58;;
23668;SDS011;12011;47.422;15.018;2024-03-17T07:42:48;0.75;;;0.75;;
23668;SDS011;12011;47.422;15.018;2024-03-17T07:45:21;0.54;;;0.54;;
23668;SDS011;12011;47.422;15.018;2024-03-17T07:47:51;0.57;;;0.57;;
23668;SDS011;12011;47.422;15.018;2024-03-17T07:50:21;0.49;;;0.49;;
23668;SDS011;12011;47.422;15.018;2024-03-17T07:52:50;0.40;;;0.40;;
23668;SDS011;12011;47.422;15.018;2024-03-17T07:55:20;0.38;;;0.38;;
23668;SDS011;12011;47.422;15.018;2024-03-17T07:57:49;0.54;;;0.54;;
23668;SDS011;12011;47.422;15.018;2024-03-17T08:00:21;0.61;;;0.61;;
23668;SDS011;12011;47.422;15.018;2024-03-17T08:02:51;0.59;;;0.59;;
23668;SDS011;12011;47.422;15.018;2024-03-17T08:05:21;0.50;;;0.50;;
23668;SDS011;12011;47.422;15.018;2024-03-17T08:07:50;0.50;;;0.50;;
23668;SDS011;12011;47.422;15.018;2024-03-17T08:10:20;0.37;;;0.37;;
23668;SDS011;12011;47.422;15.018;2024-03-17T08:12:50;0.42;;;0.42;;
23668;SDS011;12011;47.422;15.018;2024-03-17T08:15:22;0.53;;;0.53;;
23668;SDS011;12011;47.422;15.018;2024-03-17T08:17:51;0.52;;;0.52;;
23668;SDS011;12011;47.422;15.018;2024-03-17T08:20:21;0.51;;;0.51;;
23668;SDS011;12011;47.422;15.018;2024-03-17T08:22:50;0.49;;;0.49;;
23668;SDS011;12011;47.422;15.018;2024-03-17T08:25:20;0.55;;;0.55;;
23668;SDS011;12011;47.422;15.018;2024-03-17T08:27:49;0.69;;;0.69;;
23668;SDS011;12011;47.422;15.018;2024-03-17T08:30:21;0.38;;;0.38;;
23668;SDS011;12011;47.422;15.018;2024-03-17T08:32:51;0.40;;;0.40;;
23668;SDS011;12011;47.422;15.018;2024-03-17T08:35:20;0.54;;;0.54;;
23668;SDS011;12011;47.422;15.018;2024-03-17T08:37:50;0.57;;;0.57;;
23668;SDS011;12011;47.422;15.018;2024-03-17T08:40:20;0.52;;;0.52;;
23668;SDS011;12011;47.422;15.018;2024-03-17T08:42:49;0.33;;;0.33;;
23668;SDS011;12011;47.422;15.018;2024-03-17T08:45:21;0.46;;;0.46;;
23668;SDS011;12011;47.422;15.018;2024-03-17T08:47:51;0.56;;;0.56;;
23668;SDS011;12011;47.422;15.018;2024-03-17T08:50:20;0.39;;;0.39;;
23668;SDS011;12011;47.422;15.018;2024-03-17T08:52:50;0.36;;;0.36;;
23668;SDS011;12011;47.422;15.018;2024-03-17T08:55:19;0.38;;;0.38;;
23668;SDS011;12011;47.422;15.018;2024-03-17T08:57:49;0.29;;;0.29;;
23668;SDS011;12011;47.422;15.018;2024-03-17T09:00:18;0.32;;;0.32;;
23668;SDS011;12011;47.422;15.018;2024-03-17T09:02:53;0.36;;;0.36;;
23668;SDS011;12011;47.422;15.018;2024-03-17T09:05:22;0.27;;;0.27;;
23668;SDS011;12011;47.422;15.018;2024-03-17T09:07:49;0.30;;;0.30;;
23668;SDS011;12011;47.422;15.018;2024-03-17T09:10:20;0.37;;;0.37;;
23668;SDS011;12011;47.422;15.018;2024-03-17T09:12:53;0.20;;;0.20;;
23668;SDS011;12011;47.422;15.018;2024-03-17T09:15:26;0.33;;;0.33;;
23668;SDS011;12011;47.422;15.018;2024-03-17T09:17:56;0.32;;;0.32;;
23668;SDS011;12011;47.422;15.018;2024-03-17T09:20:25;0.29;;;0.29;;
23668;SDS011;12011;47.422;15.018;2024-03-17T09:22:55;0.28;;;0.28;;
23668;SDS011;12011;47.422;15.018;2024-03-17T09:25:24;0.32;;;0.32;;
23668;SDS011;12011;47.422;15.018;2024-03-17T09:27:55;0.38;;;0.38;;
23668;SDS011;12011;47.422;15.018;2024-03-17T09:30:27;0.31;;;0.31;;
23668;SDS011;12011;47.422;15.018;2024-03-17T09:32:57;0.35;;;0.35;;
23668;SDS011;12011;47.422;15.018;2024-03-17T09:35:30;0.30;;;0.30;;
23668;SDS011;12011;47.422;15.018;2024-03-17T09:37:59;0.31;;;0.31;;
23668;SDS011;12011;47.422;15.018;2024-03-17T09:40:30;0.24;;;0.24;;
23668;SDS011;12011;47.422;15.018;2024-03-17T09:42:59;0.26;;;0.26;;
23668;SDS011;12011;47.422;15.018;2024-03-17T09:45:32;0.34;;;0.34;;
23668;SDS011;12011;47.422;15.018;2024-03-17T09:48:02;0.39;;;0.39;;
23668;SDS011;12011;47.422;15.018;2024-03-17T09:50:33;0.31;;;0.31;;
23668;SDS011;12011;47.422;15.018;2024-03-17T09:53:03;0.23;;;0.23;;
23668;SDS011;12011;47.422;15.018;2024-03-17T09:55:34;0.22;;;0.22;;
23668;SDS011;12011;47.422;15.018;2024-03-17T09:58:04;0.31;;;0.31;;
23668;SDS011;12011;47.422;15.018;2024-03-17T10:00:46;0.41;;;0.41;;
23668;SDS011;12011;47.422;15.018;2024-03-17T10:06:17;0.40;;;0.39;;
23668;SDS011;12011;47.422;15.018;2024-03-17T10:08:49;0.24;;;0.24;;
23668;SDS011;12011;47.422;15.018;2024-03-17T10:11:20;0.37;;;0.36;;
23668;SDS011;12011;47.422;15.018;2024-03-17T10:13:58;0.23;;;0.22;;
23668;SDS011;12011;47.422;15.018;2024-03-17T10:16:33;0.30;;;0.30;;
23668;SDS011;12011;47.422;15.018;2024-03-17T10:19:08;0.44;;;0.43;;
23668;SDS011;12011;47.422;15.018;2024-03-17T10:21:39;0.27;;;0.27;;
23668;SDS011;12011;47.422;15.018;2024-03-17T10:24:13;0.37;;;0.37;;
23668;SDS011;12011;47.422;15.018;2024-03-17T10:26:50;0.31;;;0.30;;
23668;SDS011;12011;47.422;15.018;2024-03-17T10:29:23;0.26;;;0.25;;
23668;SDS011;12011;47.422;15.018;2024-03-17T10:31:59;0.45;;;0.45;;
23668;SDS011;12011;47.422;15.018;2024-03-17T10:34:31;0.41;;;0.41;;
23668;SDS011;12011;47.422;15.018;2024-03-17T10:37:05;0.26;;;0.25;;
23668;SDS011;12011;47.422;15.018;2024-03-17T10:39:39;0.23;;;0.23;;
23668;SDS011;12011;47.422;15.018;2024-03-17T10:42:12;0.27;;;0.26;;
23668;SDS011;12011;47.422;15.018;2024-03-17T10:44:43;0.23;;;0.23;;
23668;SDS011;12011;47.422;15.018;2024-03-17T10:47:17;0.31;;;0.31;;
23668;SDS011;12011;47.422;15.018;2024-03-17T10:49:51;0.22;;;0.22;;
23668;SDS011;12011;47.422;15.018;2024-03-17T10:52:23;0.35;;;0.34;;
23668;SDS011;12011;47.422;15.018;2024-03-17T10:54:54;0.22;;;0.22;;
23668;SDS011;12011;47.422;15.018;2024-03-17T10:57:27;0.26;;;0.25;;
23668;SDS011;12011;47.422;15.018;2024-03-17T11:00:05;0.32;;;0.31;;
23668;SDS011;12011;47.422;15.018;2024-03-17T11:02:40;0.29;;;0.29;;
23668;SDS011;12011;47.422;15.018;2024-03-17T11:05:12;0.19;;;0.19;;
23668;SDS011;12011;47.422;15.018;2024-03-17T11:07:46;0.16;;;0.16;;
23668;SDS011;12011;47.422;15.018;2024-03-17T11:10:21;0.34;;;0.33;;
23668;SDS011;12011;47.422;15.018;2024-03-17T11:12:54;0.28;;;0.28;;
23668;SDS011;12011;47.422;15.018;2024-03-17T11:15:37;0.46;;;0.46;;
23668;SDS011;12011;47.422;15.018;2024-03-17T11:21:21;0.27;;;0.27;;
23668;SDS011;12011;47.422;15.018;2024-03-17T11:23:57;0.33;;;0.33;;
23668;SDS011;12011;47.422;15.018;2024-03-17T11:26:27;0.46;;;0.46;;
23668;SDS011;12011;47.422;15.018;2024-03-17T11:29:00;0.23;;;0.22;;
23668;SDS011;12011;47.422;15.018;2024-03-17T11:31:40;0.31;;;0.31;;
23668;SDS011;12011;47.422;15.018;2024-03-17T11:37:07;0.22;;;0.22;;
23668;SDS011;12011;47.422;15.018;2024-03-17T11:40:22;0.33;;;0.32;;
23668;SDS011;12011;47.422;15.018;2024-03-17T11:43:02;0.25;;;0.25;;
23668;SDS011;12011;47.422;15.018;2024-03-17T11:45:31;0.31;;;0.30;;
23668;SDS011;12011;47.422;15.018;2024-03-17T11:48:01;0.23;;;0.22;;
23668;SDS011;12011;47.422;15.018;2024-03-17T11:50:34;0.36;;;0.35;;
23668;SDS011;12011;47.422;15.018;2024-03-17T11:53:07;0.21;;;0.20;;
23668;SDS011;12011;47.422;15.018;2024-03-17T11:55:37;0.44;;;0.42;;
23668;SDS011;12011;47.422;15.018;2024-03-17T11:58:11;0.32;;;0.31;;
23668;SDS011;12011;47.422;15.018;2024-03-17T12:00:41;0.31;;;0.30;;
23668;SDS011;12011;47.422;15.018;2024-03-17T12:03:10;0.24;;;0.23;;
23668;SDS011;12011;47.422;15.018;2024-03-17T12:05:41;0.29;;;0.27;;
23668;SDS011;12011;47.422;15.018;2024-03-17T12:08:17;0.29;;;0.27;;
23668;SDS011;12011;47.422;15.018;2024-03-17T12:10:47;0.36;;;0.34;;
23668;SDS011;12011;47.422;15.018;2024-03-17T12:13:17;0.35;;;0.33;;
23668;SDS011;12011;47.422;15.018;2024-03-17T12:15:44;0.35;;;0.33;;
23668;SDS011;12011;47.422;15.018;2024-03-17T12:18:21;0.23;;;0.22;;
23668;SDS011;12011;47.422;15.018;2024-03-17T12:20:51;0.41;;;0.38;;
23668;SDS011;12011;47.422;15.018;2024-03-17T12:23:25;0.41;;;0.39;;
23668;SDS011;12011;47.422;15.018;2024-03-17T12:25:58;0.22;;;0.21;;
23668;SDS011;12011;47.422;15.018;2024-03-17T12:28:27;0.28;;;0.27;;
23668;SDS011;12011;47.422;15.018;2024-03-17T12:30:55;0.32;;;0.30;;
23668;SDS011;12011;47.422;15.018;2024-03-17T12:33:28;0.33;;;0.31;;
23668;SDS011;12011;47.422;15.018;2024-03-17T12:36:00;0.35;;;0.33;;
23668;SDS011;12011;47.422;15.018;2024-03-17T12:38:35;0.22;;;0.21;;
23668;SDS011;12011;47.422;15.018;2024-03-17T12:41:02;0.42;;;0.40;;
23668;SDS011;12011;47.422;15.018;2024-03-17T12:43:35;0.22;;;0.21;;
23668;SDS011;12011;47.422;15.018;2024-03-17T12:46:02;0.37;;;0.34;;
23668;SDS011;12011;47.422;15.018;2024-03-17T12:48:32;0.30;;;0.28;;
23668;SDS011;12011;47.422;15.018;2024-03-17T12:51:01;0.33;;;0.31;;
23668;SDS011;12011;47.422;15.018;2024-03-17T12:53:32;0.28;;;0.26;;
23668;SDS011;12011;47.422;15.018;2024-03-17T12:55:59;0.38;;;0.36;;
23668;SDS011;12011;47.422;15.018;2024-03-17T12:58:40;0.39;;;0.37;;
23668;SDS011;12011;47.422;15.018;2024-03-17T13:01:37;0.46;;;0.44;;
23668;SDS011;12011;47.422;15.018;2024-03-17T13:04:07;0.31;;;0.29;;
23668;SDS011;12011;47.422;15.018;2024-03-17T13:06:39;0.31;;;0.30;;
23668;SDS011;12011;47.422;15.018;2024-03-17T13:09:08;0.41;;;0.39;;
23668;SDS011;12011;47.422;15.018;2024-03-17T13:11:38;0.29;;;0.27;;
23668;SDS011;12011;47.422;15.018;2024-03-17T13:14:07;0.28;;;0.26;;
23668;SDS011;12011;47.422;15.018;2024-03-17T13:16:43;0.33;;;0.31;;
23668;SDS011;12011;47.422;15.018;2024-03-17T13:19:14;0.40;;;0.38;;
23668;SDS011;12011;47.422;15.018;2024-03-17T13:21:47;0.33;;;0.31;;
23668;SDS011;12011;47.422;15.018;2024-03-17T13:24:16;0.34;;;0.32;;
23668;SDS011;12011;47.422;15.018;2024-03-17T13:26:46;0.31;;;0.30;;
23668;SDS011;12011;47.422;15.018;2024-03-17T13:29:16;0.38;;;0.36;;
23668;SDS011;12011;47.422;15.018;2024-03-17T13:31:45;0.34;;;0.32;;
23668;SDS011;12011;47.422;15.018;2024-03-17T13:34:15;0.31;;;0.29;;
23668;SDS011;12011;47.422;15.018;2024-03-17T13:36:47;0.41;;;0.38;;
23668;SDS011;12011;47.422;15.018;2024-03-17T13:39:16;0.28;;;0.26;;
23668;SDS011;12011;47.422;15.018;2024-03-17T13:41:47;0.30;;;0.28;;
23668;SDS011;12011;47.422;15.018;2024-03-17T13:44:18;0.22;;;0.21;;
23668;SDS011;12011;47.422;15.018;2024-03-17T13:46:47;0.30;;;0.28;;
23668;SDS011;12011;47.422;15.018;2024-03-17T13:49:17;0.39;;;0.37;;
23668;SDS011;12011;47.422;15.018;2024-03-17T13:51:49;0.32;;;0.30;;
23668;SDS011;12011;47.422;15.018;2024-03-17T13:54:19;0.30;;;0.28;;
23668;SDS011;12011;47.422;15.018;2024-03-17T13:56:49;0.27;;;0.25;;
23668;SDS011;12011;47.422;15.018;2024-03-17T13:59:19;0.20;;;0.19;;
23668;SDS011;12011;47.422;15.018;2024-03-17T14:01:50;0.37;;;0.35;;
23668;SDS011;12011;47.422;15.018;2024-03-17T14:04:20;0.32;;;0.29;;
23668;SDS011;12011;47.422;15.018;2024-03-17T14:06:52;0.30;;;0.28;;
23668;SDS011;12011;47.422;15.018;2024-03-17T14:09:21;0.37;;;0.34;;
23668;SDS011;12011;47.422;15.018;2024-03-17T14:11:48;0.40;;;0.37;;
23668;SDS011;12011;47.422;15.018;2024-03-17T14:14:18;0.28;;;0.25;;
23668;SDS011;12011;47.422;15.018;2024-03-17T14:16:48;0.34;;;0.31;;
23668;SDS011;12011;47.422;15.018;2024-03-17T14:19:19;0.35;;;0.32;;
23668;SDS011;12011;47.422;15.018;2024-03-17T14:21:48;0.30;;;0.28;;
23668;SDS011;12011;47.422;15.018;2024-03-17T14:24:20;0.26;;;0.24;;
23668;SDS011;12011;47.422;15.018;2024-03-17T14:26:50;0.41;;;0.39;;
23668;SDS011;12011;47.422;15.018;2024-03-17T14:29:19;0.41;;;0.38;;
23668;SDS011;12011;47.422;15.018;2024-03-17T14:31:49;0.32;;;0.30;;
23668;SDS011;12011;47.422;15.018;2024-03-17T14:34:18;0.31;;;0.29;;
23668;SDS011;12011;47.422;15.018;2024-03-17T14:36:48;0.27;;;0.26;;
23668;SDS011;12011;47.422;15.018;2024-03-17T14:39:20;0.23;;;0.22;;
23668;SDS011;12011;47.422;15.018;2024-03-17T14:41:49;0.44;;;0.41;;
23668;SDS011;12011;47.422;15.018;2024-03-17T14:44:19;0.54;;;0.50;;
23668;SDS011;12011;47.422;15.018;2024-03-17T14:46:48;0.30;;;0.28;;
23668;SDS011;12011;47.422;15.018;2024-03-17T14:49:20;0.36;;;0.34;;
23668;SDS011;12011;47.422;15.018;2024-03-17T14:51:50;0.30;;;0.28;;
23668;SDS011;12011;47.422;15.018;2024-03-17T14:54:25;0.26;;;0.24;;
23668;SDS011;12011;47.422;15.018;2024-03-17T14:56:56;0.32;;;0.29;;
23668;SDS011;12011;47.422;15.018;2024-03-17T14:59:26;0.24;;;0.23;;
23668;SDS011;12011;47.422;15.018;2024-03-17T15:01:55;0.34;;;0.32;;
23668;SDS011;12011;47.422;15.018;2024-03-17T15:04:25;0.41;;;0.38;;
23668;SDS011;12011;47.422;15.018;2024-03-17T15:06:56;0.32;;;0.30;;
23668;SDS011;12011;47.422;15.018;2024-03-17T15:09:28;0.49;;;0.46;;
23668;SDS011;12011;47.422;15.018;2024-03-17T15:11:58;0.71;;;0.67;;
23668;SDS011;12011;47.422;15.018;2024-03-17T15:14:28;0.57;;;0.54;;